Portada
METAR-TAF:

METAR-TAF

Aeropuertos :

Madrid-Cuatro Vientos, España

Aeropuerto de Madrid-Cuatro Vientos

latitud: 40-23N, longitud: 003-47W, altitud: 690 m

Observación

El informe se hizo hace 38 minutos, a las 16:00 UTC
Viento 6 kt del sur-suroeste, variando entre sureste y oeste
Temperatura 27°C
Humedad 17%
Presión 1018 hPa
Visibilidad 10 km o más
sin nubes por debajo de 1500 m y sin presencia de cumulonimbus.

METAR: LEVS 201600Z 21006KT 130V260 CAVOK 27/00 Q1018

Hora: 18:38 (16:38 UTC)

Pronóstico

El informe se hizo hace 2 horas y 38 minutos, a las 14:00 UTC
Pronóstico válido del 20 a las 15 UTC al 20 a las 24 UTC
Viento 5 kt con dirección variable
Visibilidad 10 km o más
sin nubes por debajo de 1500 m y sin presencia de cumulonimbus.
Probabilidad 40% :
Temporalmente
del 20 a las 15 UTC al 20 a las 17 UTC
Viento 7 kt del sur-suroeste con ráfagas de 17 kt

TAF: LEVS 201400Z 2015/2024 VRB05KT CAVOK PROB40 TEMPO 2015/2017 20007G17KT

Observaciones y pronósticos meteorológicos de más de 4000 aeropuertos (mensajes METAR y TAF).

Los puntos amarillos y rojos representan las estaciones disponibles.

Ponga el ratón en el punto deseado para ver el nombre de la estación.

Haga clic para ver las observaciones y los pronósticos meteorológicos.

Para cambiar el mapa : haga clic en los botones verdes con una cruz de color negro para hacer un zoom, en el botón verde con un guión para alejar o en las flechas verdes para mapas adyacentes.


METAR-TAF: